Time;durP1;ratioP1;P1;durP2;ratioP2;P2;SDS_P1;SDS_P2;PMS_P1;PMS_P2;Temp;Humidity;BMP_temperature;BMP_pressure;BME280_temperature;BME280_humidity;BME280_pressure;Samples;Min_cycle;Max_cycle;Signal;HPM_P1;HPM_P2
2021/09/16 00:00:05;;;;;;;3.53;2.10;;;20.00;99.90;;;;;;5053078;28;20452;-79
2021/09/16 00:02:32;;;;;;;4.17;2.00;;;20.10;99.90;;;;;;5039152;28;20953;-79
2021/09/16 00:04:59;;;;;;;3.77;2.10;;;20.10;99.90;;;;;;5033855;28;20477;-79
2021/09/16 00:07:26;;;;;;;6.90;2.93;;;20.20;99.90;;;;;;5046324;28;20448;-79
2021/09/16 00:09:53;;;;;;;5.80;2.30;;;20.20;99.90;;;;;;5052709;28;20475;-79
2021/09/16 00:12:20;;;;;;;4.70;2.10;;;20.20;99.90;;;;;;5041255;28;20457;-79
2021/09/16 00:14:48;;;;;;;4.73;2.47;;;20.20;99.90;;;;;;5036933;28;20562;-79
2021/09/16 00:17:15;;;;;;;5.93;2.30;;;20.30;99.90;;;;;;5037120;28;20452;-79
2021/09/16 00:19:41;;;;;;;3.93;2.13;;;20.30;99.90;;;;;;5052679;28;21003;-79
2021/09/16 00:22:08;;;;;;;4.70;2.30;;;20.30;99.90;;;;;;5051582;28;20458;-79
2021/09/16 00:24:35;;;;;;;4.47;2.57;;;20.30;99.90;;;;;;5057069;28;20500;-78
2021/09/16 00:27:02;;;;;;;5.97;2.40;;;20.20;99.90;;;;;;5058312;28;20452;-80
2021/09/16 00:29:29;;;;;;;5.00;2.60;;;20.20;99.90;;;;;;5057171;28;20451;-79
2021/09/16 00:31:57;;;;;;;4.10;2.57;;;20.20;99.90;;;;;;5048479;28;20487;-79
2021/09/16 00:34:24;;;;;;;4.60;2.10;;;20.30;99.90;;;;;;5037179;28;20847;-79
2021/09/16 00:36:51;;;;;;;6.00;2.93;;;20.20;99.90;;;;;;5036786;28;20456;-79
2021/09/16 00:39:18;;;;;;;5.20;2.70;;;20.10;99.90;;;;;;5038610;28;20784;-79
2021/09/16 00:41:45;;;;;;;4.60;2.50;;;20.10;99.90;;;;;;5042812;28;20540;-78
2021/09/16 00:44:12;;;;;;;4.60;2.30;;;20.20;99.90;;;;;;5056394;28;20462;-78
2021/09/16 00:46:38;;;;;;;4.40;2.30;;;20.10;99.90;;;;;;5056683;28;20440;-78
2021/09/16 00:49:08;;;;;;;6.33;3.33;;;20.10;99.90;;;;;;5057543;28;20535;-78
2021/09/16 00:51:37;;;;;;;5.70;2.90;;;20.10;99.90;;;;;;5053357;28;20480;-78
2021/09/16 00:54:06;;;;;;;3.70;1.83;;;20.10;99.90;;;;;;5038851;28;20464;-78
2021/09/16 00:56:33;;;;;;;5.93;2.70;;;20.10;99.90;;;;;;5037453;28;20464;-79
2021/09/16 00:59:02;;;;;;;4.50;2.50;;;20.10;99.90;;;;;;5046485;28;20456;-79
2021/09/16 01:01:30;;;;;;;4.30;2.50;;;20.10;99.90;;;;;;5053266;28;20916;-79
2021/09/16 01:03:57;;;;;;;7.43;3.00;;;20.10;99.90;;;;;;5045867;28;20522;-79
2021/09/16 01:06:26;;;;;;;5.90;2.23;;;20.10;99.90;;;;;;5056909;28;20468;-79
2021/09/16 01:08:53;;;;;;;6.03;2.67;;;20.10;99.90;;;;;;5056021;28;20448;-78
2021/09/16 01:11:21;;;;;;;5.30;3.10;;;20.10;99.90;;;;;;5055452;28;20477;-78
2021/09/16 01:13:48;;;;;;;5.10;2.27;;;20.10;99.90;;;;;;5055206;28;20456;-78
2021/09/16 01:16:15;;;;;;;4.40;2.30;;;20.10;99.90;;;;;;5055835;28;20475;-79
2021/09/16 01:18:42;;;;;;;4.90;2.40;;;20.10;99.90;;;;;;5058236;28;20508;-79
2021/09/16 01:21:09;;;;;;;4.03;2.00;;;20.10;99.90;;;;;;5056493;28;20452;-79
2021/09/16 01:23:37;;;;;;;4.47;2.20;;;20.30;99.90;;;;;;5037534;28;20817;-78
2021/09/16 01:26:04;;;;;;;5.53;2.20;;;20.30;99.90;;;;;;5043332;28;20842;-77
2021/09/16 01:28:31;;;;;;;3.60;2.10;;;20.20;99.90;;;;;;5039233;28;20567;-78
2021/09/16 01:30:57;;;;;;;3.40;1.87;;;20.20;99.90;;;;;;5035703;28;20855;-79
2021/09/16 01:33:24;;;;;;;3.53;2.00;;;20.20;99.90;;;;;;5036257;28;20459;-79
2021/09/16 01:35:52;;;;;;;4.10;2.03;;;20.30;99.90;;;;;;5035706;28;20468;-79
2021/09/16 01:38:19;;;;;;;4.07;2.40;;;20.20;99.90;;;;;;5035694;28;20834;-79
2021/09/16 01:40:47;;;;;;;3.60;2.00;;;20.20;99.90;;;;;;5035438;28;20426;-79
2021/09/16 01:43:15;;;;;;;5.80;2.20;;;20.10;99.90;;;;;;5051115;28;20995;-78
2021/09/16 01:45:41;;;;;;;3.40;2.00;;;20.10;99.90;;;;;;5042227;28;20459;-79
2021/09/16 01:48:08;;;;;;;4.10;2.10;;;20.10;99.90;;;;;;5051654;28;20455;-79
2021/09/16 01:50:35;;;;;;;3.47;1.87;;;20.00;99.90;;;;;;5054887;28;20460;-79
2021/09/16 01:53:02;;;;;;;3.10;1.40;;;20.00;99.90;;;;;;5039925;28;20461;-79
2021/09/16 01:55:29;;;;;;;4.30;1.70;;;20.10;99.90;;;;;;5035858;28;20483;-79
2021/09/16 01:57:57;;;;;;;3.67;1.87;;;20.10;99.90;;;;;;5035268;28;20521;-79
2021/09/16 02:00:24;;;;;;;3.40;2.00;;;20.10;99.90;;;;;;5036171;28;20471;-79
2021/09/16 02:02:50;;;;;;;4.73;2.03;;;20.20;99.90;;;;;;5035699;28;20767;-78
2021/09/16 02:05:17;;;;;;;4.63;2.00;;;20.20;99.90;;;;;;5035186;28;20494;-79
2021/09/16 02:07:44;;;;;;;3.97;1.87;;;20.20;99.90;;;;;;5046916;28;20486;-79
2021/09/16 02:10:11;;;;;;;7.80;2.57;;;20.10;99.90;;;;;;5055081;28;20448;-79
2021/09/16 02:12:38;;;;;;;4.20;1.93;;;20.10;99.90;;;;;;5043419;28;20494;-79
2021/09/16 02:15:08;;;;;;;4.40;2.27;;;20.00;99.90;;;;;;5043378;28;20485;-79
2021/09/16 02:17:35;;;;;;;4.90;2.33;;;20.00;99.90;;;;;;5054890;28;20458;-79
2021/09/16 02:20:01;;;;;;;4.60;2.30;;;19.90;99.90;;;;;;5054545;28;20481;-79
2021/09/16 02:22:28;;;;;;;6.10;2.57;;;19.90;99.90;;;;;;5054598;28;20431;-79
2021/09/16 02:24:55;;;;;;;3.40;1.77;;;19.90;99.90;;;;;;5054726;28;20472;-78
2021/09/16 02:27:22;;;;;;;6.53;2.00;;;19.90;99.90;;;;;;5046779;28;20803;-79
2021/09/16 02:29:48;;;;;;;3.50;1.70;;;19.90;99.90;;;;;;5036089;28;20483;-78
2021/09/16 02:32:17;;;;;;;3.40;2.00;;;19.90;99.90;;;;;;5050780;28;20498;-80
2021/09/16 02:34:43;;;;;;;4.80;2.03;;;19.90;99.90;;;;;;5054816;28;20479;-79
2021/09/16 02:37:10;;;;;;;3.20;1.60;;;20.00;99.90;;;;;;5055720;28;20451;-79
2021/09/16 02:39:37;;;;;;;5.60;1.90;;;19.90;99.90;;;;;;5057669;28;20543;-78
2021/09/16 02:42:04;;;;;;;4.33;2.23;;;19.90;99.90;;;;;;5051107;28;20449;-79
2021/09/16 02:44:31;;;;;;;4.40;1.67;;;19.90;99.90;;;;;;5046145;28;21015;-79
2021/09/16 02:46:58;;;;;;;5.80;2.20;;;19.90;99.90;;;;;;5054091;28;20556;-78
2021/09/16 02:49:26;;;;;;;7.00;2.30;;;19.90;99.90;;;;;;5034720;28;20464;-79
2021/09/16 02:51:53;;;;;;;5.23;2.03;;;19.90;99.90;;;;;;5034803;28;20477;-79
2021/09/16 02:54:20;;;;;;;4.00;2.13;;;19.90;99.90;;;;;;5034575;28;20515;-79
2021/09/16 02:56:47;;;;;;;3.40;1.80;;;19.90;99.90;;;;;;5035137;28;20463;-79
2021/09/16 02:59:14;;;;;;;4.07;1.87;;;20.00;99.90;;;;;;5034049;28;20470;-79
2021/09/16 03:01:41;;;;;;;5.03;1.80;;;20.00;99.90;;;;;;5043995;28;20800;-79
2021/09/16 03:04:08;;;;;;;4.10;1.70;;;20.00;99.90;;;;;;5056012;28;20460;-79
2021/09/16 03:06:36;;;;;;;5.57;2.20;;;20.10;99.90;;;;;;5047340;28;20968;-79
2021/09/16 03:09:03;;;;;;;4.70;1.90;;;20.10;99.90;;;;;;5034473;28;20459;-79
2021/09/16 03:11:30;;;;;;;3.07;1.50;;;20.10;99.90;;;;;;5035464;28;20985;-79
2021/09/16 03:13:57;;;;;;;3.50;1.80;;;20.00;99.90;;;;;;5034483;28;20554;-79
2021/09/16 03:16:24;;;;;;;6.70;2.03;;;20.10;99.90;;;;;;5033574;28;20480;-78
2021/09/16 03:18:51;;;;;;;4.83;2.00;;;20.00;99.90;;;;;;5033781;28;20465;-79
2021/09/16 03:21:18;;;;;;;3.57;1.90;;;20.00;99.90;;;;;;5034398;28;20831;-79
2021/09/16 03:23:46;;;;;;;3.10;1.80;;;19.90;99.90;;;;;;5033769;28;20482;-79
2021/09/16 03:26:13;;;;;;;4.27;2.33;;;19.90;99.90;;;;;;5037248;28;20491;-79
2021/09/16 03:28:40;;;;;;;5.87;2.67;;;19.90;99.90;;;;;;5053937;28;20452;-79
2021/09/16 03:31:07;;;;;;;5.20;2.30;;;19.80;99.90;;;;;;5052244;28;20490;-79
2021/09/16 03:33:34;;;;;;;3.77;1.93;;;19.80;99.90;;;;;;5034753;28;20452;-78
2021/09/16 03:36:01;;;;;;;4.37;2.00;;;19.80;99.90;;;;;;5051803;28;20479;-78
2021/09/16 03:38:31;;;;;;;4.80;1.90;;;19.80;99.90;;;;;;5059764;28;20441;-78
2021/09/16 03:40:59;;;;;;;4.70;2.10;;;19.80;99.90;;;;;;5059137;28;20448;-77
2021/09/16 03:43:27;;;;;;;4.03;2.40;;;19.90;99.90;;;;;;5057857;28;20467;-77
2021/09/16 03:45:54;;;;;;;3.87;2.17;;;19.80;99.90;;;;;;5040433;28;20484;-78
2021/09/16 03:48:21;;;;;;;6.77;2.10;;;19.80;99.90;;;;;;5040311;28;20812;-78
2021/09/16 03:50:47;;;;;;;4.03;2.10;;;19.70;99.90;;;;;;5038026;28;20549;-78
2021/09/16 03:53:15;;;;;;;4.20;2.03;;;19.70;99.90;;;;;;5038490;28;20488;-79
2021/09/16 03:55:42;;;;;;;4.00;2.20;;;19.70;99.90;;;;;;5037779;28;20534;-78
2021/09/16 03:58:10;;;;;;;8.90;2.30;;;19.80;99.90;;;;;;5038911;28;20497;-79
2021/09/16 04:00:37;;;;;;;5.90;2.10;;;19.90;99.90;;;;;;5037951;28;20452;-79
2021/09/16 04:03:08;;;;;;;7.77;2.20;;;19.90;99.90;;;;;;5043852;28;20816;-79
2021/09/16 04:05:35;;;;;;;4.30;2.10;;;19.80;99.90;;;;;;5057125;28;21048;-79
2021/09/16 04:08:02;;;;;;;3.50;1.90;;;20.00;99.90;;;;;;5057840;28;20492;-79
2021/09/16 04:10:29;;;;;;;5.40;2.03;;;19.90;99.90;;;;;;5057074;28;20463;-79
2021/09/16 04:12:56;;;;;;;3.87;2.00;;;19.90;99.90;;;;;;5049580;28;20487;-78
2021/09/16 04:15:25;;;;;;;5.23;2.73;;;19.80;99.90;;;;;;5040295;28;20578;-79
2021/09/16 04:17:51;;;;;;;4.47;2.13;;;19.70;99.90;;;;;;5049509;28;20452;-79
2021/09/16 04:20:18;;;;;;;4.70;2.57;;;19.70;99.90;;;;;;5057722;28;20457;-79
2021/09/16 04:22:45;;;;;;;4.27;2.60;;;19.60;99.90;;;;;;5057004;28;20423;-79
2021/09/16 04:25:12;;;;;;;3.33;2.00;;;19.60;99.90;;;;;;5058015;28;20472;-79
2021/09/16 04:27:39;;;;;;;4.60;2.13;;;19.70;99.90;;;;;;5052368;28;20456;-78
2021/09/16 04:30:07;;;;;;;3.73;1.93;;;19.70;99.90;;;;;;5052254;28;20415;-77
2021/09/16 04:32:37;;;;;;;5.13;2.00;;;19.80;99.90;;;;;;5048173;28;20499;-78
2021/09/16 04:35:04;;;;;;;6.13;2.10;;;19.80;99.90;;;;;;5037738;28;20477;-78
2021/09/16 04:37:31;;;;;;;4.00;2.30;;;19.70;99.90;;;;;;5038839;28;20459;-79
2021/09/16 04:39:58;;;;;;;4.00;2.17;;;19.70;99.90;;;;;;5036788;28;20542;-79
2021/09/16 04:42:25;;;;;;;3.50;2.10;;;19.70;99.90;;;;;;5038123;28;20530;-79
2021/09/16 04:44:51;;;;;;;5.10;2.80;;;19.70;99.90;;;;;;5042134;28;20493;-79
2021/09/16 04:47:18;;;;;;;4.20;2.17;;;19.80;99.90;;;;;;5039847;28;20456;-80
2021/09/16 04:49:46;;;;;;;4.67;2.57;;;19.80;99.90;;;;;;5038846;28;20459;-79
2021/09/16 04:52:13;;;;;;;5.70;2.87;;;20.00;99.90;;;;;;5052870;28;20472;-79
2021/09/16 04:54:41;;;;;;;4.70;2.30;;;20.00;99.90;;;;;;5057468;28;20479;-79
2021/09/16 04:57:08;;;;;;;5.10;2.40;;;20.10;99.90;;;;;;5048452;28;20526;-78
2021/09/16 04:59:36;;;;;;;4.87;2.30;;;20.00;99.90;;;;;;5047195;28;20975;-79
2021/09/16 05:02:03;;;;;;;5.60;2.50;;;20.10;99.90;;;;;;5057440;28;20460;-79
2021/09/16 05:04:30;;;;;;;4.67;2.23;;;19.90;99.90;;;;;;5057081;28;21069;-78
2021/09/16 05:06:58;;;;;;;5.40;2.70;;;19.90;99.90;;;;;;5057419;28;20967;-79
2021/09/16 05:09:25;;;;;;;4.67;2.20;;;19.80;99.90;;;;;;5057303;28;20460;-79
2021/09/16 05:11:51;;;;;;;7.20;3.13;;;19.80;99.90;;;;;;5058374;28;20537;-78
2021/09/16 05:14:18;;;;;;;5.03;2.87;;;19.80;99.90;;;;;;5044425;28;20513;-79
2021/09/16 05:16:45;;;;;;;5.30;2.77;;;19.80;99.90;;;;;;5036883;28;20452;-79
2021/09/16 05:19:12;;;;;;;4.93;3.13;;;19.70;99.90;;;;;;5037567;28;20491;-79
2021/09/16 05:21:39;;;;;;;5.27;2.90;;;19.70;99.90;;;;;;5037983;28;21608;-78
2021/09/16 05:24:07;;;;;;;5.13;3.10;;;19.70;99.90;;;;;;5054330;28;20539;-78
2021/09/16 05:26:34;;;;;;;8.47;3.07;;;19.70;99.90;;;;;;5056238;28;20470;-79
2021/09/16 05:29:01;;;;;;;5.60;2.60;;;19.70;99.90;;;;;;5035907;28;20448;-78
2021/09/16 05:31:27;;;;;;;5.00;2.63;;;19.70;99.90;;;;;;5054018;28;20465;-78
2021/09/16 05:33:54;;;;;;;5.37;2.67;;;19.70;99.90;;;;;;5055970;28;20448;-79
2021/09/16 05:36:21;;;;;;;4.90;2.70;;;19.60;99.90;;;;;;5048801;28;20461;-79
2021/09/16 05:38:48;;;;;;;6.53;3.00;;;19.50;99.90;;;;;;5035558;28;20468;-79
2021/09/16 05:41:19;;;;;;;7.00;3.57;;;19.50;99.90;;;;;;5039001;28;20539;-79
2021/09/16 05:43:48;;;;;;;5.17;3.10;;;19.50;99.90;;;;;;5052040;28;20453;-79
2021/09/16 05:46:18;;;;;;;8.50;3.13;;;19.40;99.90;;;;;;5035573;28;20495;-79
2021/09/16 05:49:05;;;;;;;6.93;3.10;;;19.40;99.90;;;;;;5035786;28;20922;-80
2021/09/16 05:51:32;;;;;;;5.20;3.37;;;19.40;99.90;;;;;;5034378;28;20828;-80
2021/09/16 05:53:59;;;;;;;10.90;3.80;;;19.50;99.90;;;;;;5037086;28;20487;-79
2021/09/16 05:56:27;;;;;;;6.10;3.40;;;19.50;99.90;;;;;;5046120;28;20446;-79
2021/09/16 05:58:54;;;;;;;7.00;3.20;;;19.60;99.90;;;;;;5034959;28;20969;-78
2021/09/16 06:01:21;;;;;;;4.53;3.10;;;19.70;99.90;;;;;;5070481;23;21006;-76
2021/09/16 06:03:48;;;;;;;5.13;3.20;;;19.60;99.90;;;;;;5054279;28;20439;-76
2021/09/16 06:06:15;;;;;;;8.00;3.23;;;19.80;99.90;;;;;;5062789;28;20457;-80
2021/09/16 06:08:42;;;;;;;8.43;3.57;;;19.90;99.90;;;;;;5074076;28;20451;-76
2021/09/16 06:11:09;;;;;;;5.40;2.93;;;19.90;99.90;;;;;;5049700;28;20475;-78
2021/09/16 06:13:37;;;;;;;5.33;3.00;;;19.90;99.90;;;;;;5051560;28;20576;-77
2021/09/16 06:16:05;;;;;;;5.47;2.83;;;19.90;99.90;;;;;;5045673;28;20430;-77
2021/09/16 06:18:32;;;;;;;4.50;2.63;;;19.80;99.90;;;;;;5054774;28;21026;-77
2021/09/16 06:20:58;;;;;;;6.60;2.97;;;19.90;99.90;;;;;;5054379;28;20551;-77
2021/09/16 06:23:25;;;;;;;4.43;2.87;;;19.90;99.90;;;;;;5038076;28;20484;-77
2021/09/16 06:25:52;;;;;;;5.07;2.90;;;19.90;99.90;;;;;;5017135;28;20457;-79
2021/09/16 06:28:19;;;;;;;6.87;3.10;;;19.90;99.90;;;;;;5027462;28;20454;-79
2021/09/16 06:30:47;;;;;;;6.57;3.10;;;19.90;99.90;;;;;;5026391;28;20652;-79
2021/09/16 06:33:14;;;;;;;6.23;2.80;;;19.80;99.90;;;;;;5026980;28;20568;-79
2021/09/16 06:35:41;;;;;;;8.90;3.20;;;19.90;99.90;;;;;;5015283;28;20453;-76
2021/09/16 06:38:07;;;;;;;8.97;4.07;;;19.80;99.90;;;;;;5046326;28;20445;-77
2021/09/16 06:40:34;;;;;;;8.07;3.70;;;19.70;99.90;;;;;;5034187;28;20472;-77
2021/09/16 06:43:01;;;;;;;7.47;2.97;;;19.70;99.90;;;;;;5052661;28;20447;-77
2021/09/16 06:45:28;;;;;;;4.80;2.97;;;19.80;99.90;;;;;;5036954;28;20861;-77
2021/09/16 06:47:56;;;;;;;5.00;3.13;;;19.90;99.90;;;;;;5035504;28;20459;-77
2021/09/16 06:50:23;;;;;;;5.77;2.33;;;19.90;99.90;;;;;;5038932;28;20567;-79
2021/09/16 06:52:50;;;;;;;6.53;2.97;;;20.10;99.90;;;;;;5044925;28;20512;-78
2021/09/16 06:55:17;;;;;;;5.47;2.90;;;20.00;99.90;;;;;;5019803;28;20460;-79
2021/09/16 06:57:44;;;;;;;5.40;3.30;;;19.90;99.90;;;;;;5037340;28;20452;-78
2021/09/16 07:00:11;;;;;;;4.77;3.37;;;20.00;99.90;;;;;;5036363;28;20487;-76
2021/09/16 07:02:38;;;;;;;6.33;2.73;;;19.90;99.90;;;;;;5033358;28;20462;-77
2021/09/16 07:05:07;;;;;;;7.40;3.27;;;20.00;99.90;;;;;;5030360;28;20547;-77
2021/09/16 07:07:34;;;;;;;6.23;3.57;;;19.80;99.90;;;;;;5023202;28;20833;-77
2021/09/16 07:10:01;;;;;;;6.33;3.33;;;20.00;99.90;;;;;;5032152;28;20488;-77
2021/09/16 07:12:28;;;;;;;4.70;2.93;;;20.20;99.90;;;;;;5025336;28;20473;-77
2021/09/16 07:14:55;;;;;;;5.37;3.00;;;20.30;99.90;;;;;;5034340;28;20461;-77
2021/09/16 07:17:21;;;;;;;4.70;2.57;;;20.40;99.90;;;;;;5032730;28;20468;-77
2021/09/16 07:19:48;;;;;;;5.53;2.63;;;20.50;99.90;;;;;;5034250;28;20477;-76
2021/09/16 07:22:16;;;;;;;4.83;2.50;;;20.30;99.90;;;;;;5034072;28;20484;-77
2021/09/16 07:24:43;;;;;;;7.87;3.20;;;20.40;99.90;;;;;;5035711;28;20619;-78
2021/09/16 07:27:10;;;;;;;5.70;3.30;;;20.30;99.90;;;;;;5035438;28;20456;-77
2021/09/16 07:29:37;;;;;;;5.30;3.50;;;20.20;99.90;;;;;;5034395;28;20833;-77
2021/09/16 07:32:05;;;;;;;8.80;3.00;;;20.30;99.90;;;;;;5035041;28;20839;-77
2021/09/16 07:34:32;;;;;;;5.43;3.60;;;20.30;99.90;;;;;;5036180;28;20452;-77
2021/09/16 07:36:59;;;;;;;6.17;2.93;;;20.20;99.90;;;;;;5035843;28;20453;-77
2021/09/16 07:39:27;;;;;;;5.50;3.73;;;19.90;99.90;;;;;;5035313;28;20456;-78
2021/09/16 07:41:54;;;;;;;8.03;4.00;;;19.70;99.90;;;;;;5033859;28;20505;-77
2021/09/16 07:44:21;;;;;;;5.90;4.13;;;19.60;99.90;;;;;;5035213;28;20447;-77
2021/09/16 07:46:48;;;;;;;10.10;5.50;;;19.40;99.90;;;;;;5034468;28;20427;-77
2021/09/16 07:49:15;;;;;;;9.07;6.30;;;19.50;99.90;;;;;;5034195;28;20460;-77
2021/09/16 07:51:41;;;;;;;10.40;7.73;;;19.30;99.90;;;;;;5035492;28;20496;-76
2021/09/16 07:54:11;;;;;;;15.57;11.90;;;19.20;99.90;;;;;;5038473;28;20524;-78
2021/09/16 07:56:39;;;;;;;11.03;8.67;;;19.10;99.90;;;;;;5037357;28;20461;-78
2021/09/16 07:59:06;;;;;;;7.53;6.10;;;19.10;99.90;;;;;;5038943;28;20456;-78
2021/09/16 08:01:34;;;;;;;8.70;6.80;;;19.00;99.90;;;;;;5046287;28;20551;-78
2021/09/16 08:04:01;;;;;;;9.23;6.93;;;19.00;99.90;;;;;;5043859;28;20991;-77
2021/09/16 08:06:27;;;;;;;9.23;5.50;;;19.00;99.90;;;;;;5034514;28;20623;-77
2021/09/16 08:08:54;;;;;;;8.20;4.77;;;19.10;99.90;;;;;;5033746;28;20490;-77
2021/09/16 08:11:21;;;;;;;5.93;4.30;;;19.00;99.90;;;;;;5034443;28;20481;-76
2021/09/16 08:13:49;;;;;;;5.73;4.17;;;19.20;99.90;;;;;;5034545;28;20822;-78
2021/09/16 08:16:16;;;;;;;5.40;3.90;;;19.20;99.90;;;;;;5034232;28;20448;-77
2021/09/16 08:18:43;;;;;;;6.47;4.27;;;19.10;99.90;;;;;;5033497;28;20985;-76
2021/09/16 08:21:13;;;;;;;5.30;3.90;;;19.00;99.90;;;;;;5034880;28;20556;-77
2021/09/16 08:23:40;;;;;;;4.50;3.50;;;19.10;99.90;;;;;;5034661;28;20536;-77
2021/09/16 08:26:06;;;;;;;4.77;3.10;;;19.10;99.90;;;;;;5034834;28;20534;-77
2021/09/16 08:28:34;;;;;;;4.20;2.83;;;19.30;99.90;;;;;;5022709;28;20470;-77
2021/09/16 08:31:03;;;;;;;3.70;2.50;;;19.10;99.90;;;;;;5024380;28;20458;-77
2021/09/16 08:33:30;;;;;;;5.30;2.67;;;19.10;99.90;;;;;;5023115;28;20469;-78
2021/09/16 08:35:57;;;;;;;6.40;3.10;;;18.90;99.90;;;;;;5040506;28;20482;-76
2021/09/16 08:38:24;;;;;;;4.30;2.30;;;18.90;99.90;;;;;;5057363;28;20449;-77
2021/09/16 08:40:51;;;;;;;3.80;2.17;;;18.90;99.90;;;;;;5042300;28;20533;-77
2021/09/16 08:43:20;;;;;;;3.40;2.13;;;19.10;99.90;;;;;;5040161;28;20553;-77
2021/09/16 08:45:48;;;;;;;3.93;2.37;;;19.20;99.90;;;;;;5036973;28;20491;-76
2021/09/16 08:48:16;;;;;;;3.70;1.63;;;19.00;99.90;;;;;;5025890;28;20460;-78
2021/09/16 08:50:43;;;;;;;3.97;1.60;;;19.00;99.90;;;;;;5040238;28;20467;-77
2021/09/16 08:53:16;;;;;;;3.97;2.40;;;19.10;99.90;;;;;;5038972;28;20555;-78
2021/09/16 08:55:43;;;;;;;3.77;1.80;;;19.20;99.90;;;;;;5048736;28;20453;-77
2021/09/16 08:58:12;;;;;;;5.50;3.10;;;19.10;99.90;;;;;;5039998;28;20448;-77
2021/09/16 09:00:39;;;;;;;3.13;1.60;;;19.10;99.90;;;;;;5037794;28;20507;-78
2021/09/16 09:03:06;;;;;;;2.90;1.40;;;19.10;99.90;;;;;;5043200;28;20452;-78
2021/09/16 09:05:34;;;;;;;3.30;1.50;;;19.20;99.90;;;;;;5046256;28;20448;-78
2021/09/16 09:08:04;;;;;;;5.90;1.63;;;19.20;99.90;;;;;;5041453;28;20452;-78
2021/09/16 09:10:38;;;;;;;3.20;1.80;;;19.20;99.90;;;;;;5040501;28;20478;-78
2021/09/16 09:13:06;;;;;;;3.53;2.23;;;19.30;99.90;;;;;;5041851;28;20833;-78
2021/09/16 09:15:34;;;;;;;5.10;3.30;;;19.20;99.90;;;;;;5040288;28;21026;-79
2021/09/16 09:18:08;;;;;;;5.87;4.17;;;19.00;99.90;;;;;;5040478;28;20493;-78
2021/09/16 09:20:57;;;;;;;7.20;5.47;;;19.00;99.90;;;;;;5040554;28;20474;-78
2021/09/16 09:23:28;;;;;;;7.90;6.53;;;18.90;99.90;;;;;;5041029;28;20452;-78
2021/09/16 09:25:55;;;;;;;8.20;6.40;;;18.60;99.90;;;;;;5037404;28;20777;-78
2021/09/16 09:28:31;;;;;;;8.20;7.13;;;18.70;99.90;;;;;;5016548;28;20975;-78
2021/09/16 09:31:00;;;;;;;10.83;7.67;;;18.60;99.90;;;;;;5016679;28;20560;-78
2021/09/16 09:33:30;;;;;;;8.63;7.03;;;18.50;99.90;;;;;;5029468;28;20485;-77
2021/09/16 09:36:07;;;;;;;6.73;5.43;;;18.60;99.90;;;;;;5038388;28;20547;-78
2021/09/16 09:38:34;;;;;;;8.13;6.70;;;18.60;99.90;;;;;;5040058;28;20796;-78
2021/09/16 09:41:02;;;;;;;6.80;5.07;;;18.50;99.90;;;;;;5052283;28;20438;-77
2021/09/16 09:43:30;;;;;;;7.97;4.93;;;18.50;99.90;;;;;;5052288;28;20452;-77
2021/09/16 09:46:06;;;;;;;5.40;3.73;;;18.50;99.90;;;;;;5053864;28;20516;-78
2021/09/16 09:48:35;;;;;;;6.97;4.80;;;18.50;99.90;;;;;;5040202;28;20515;-78
2021/09/16 09:51:05;;;;;;;7.87;5.17;;;18.40;99.90;;;;;;5038394;28;20481;-78
2021/09/16 09:53:37;;;;;;;6.17;5.23;;;18.30;99.90;;;;;;5038826;28;20973;-78
2021/09/16 09:56:12;;;;;;;6.80;5.50;;;18.30;99.90;;;;;;5039608;28;20466;-78
2021/09/16 09:58:39;;;;;;;7.13;5.60;;;18.30;99.90;;;;;;5039559;28;20439;-79
2021/09/16 10:01:30;;;;;;;9.17;7.10;;;18.30;99.90;;;;;;5040475;28;20484;-79
2021/09/16 10:03:57;;;;;;;10.90;8.20;;;18.30;99.90;;;;;;5030966;28;20526;-79
2021/09/16 10:06:35;;;;;;;8.13;6.67;;;18.20;99.90;;;;;;5039590;28;20510;-78
2021/09/16 10:09:10;;;;;;;9.30;7.17;;;18.30;99.90;;;;;;5028496;28;20503;-78
2021/09/16 10:11:41;;;;;;;9.87;8.30;;;18.20;99.90;;;;;;5020602;28;20564;-78
2021/09/16 10:14:08;;;;;;;11.60;8.60;;;18.30;99.90;;;;;;5022621;28;20546;-78
2021/09/16 10:16:35;;;;;;;11.20;9.33;;;18.10;99.90;;;;;;5040424;28;20458;-78
2021/09/16 10:19:02;;;;;;;13.80;10.10;;;18.10;99.90;;;;;;5039850;28;20459;-78
2021/09/16 10:21:29;;;;;;;10.67;7.37;;;18.20;99.90;;;;;;5054243;28;20470;-78
2021/09/16 10:23:59;;;;;;;8.83;7.93;;;18.20;99.90;;;;;;5042621;28;20419;-78
2021/09/16 10:26:37;;;;;;;13.10;9.03;;;18.20;99.90;;;;;;5040827;28;20474;-79
2021/09/16 10:29:06;;;;;;;12.63;8.83;;;18.20;99.90;;;;;;5042857;28;20436;-78
2021/09/16 10:31:33;;;;;;;12.20;9.50;;;18.30;99.90;;;;;;5043309;28;20460;-78
2021/09/16 10:34:20;;;;;;;11.63;9.87;;;18.30;99.90;;;;;;5023543;28;20491;-80
2021/09/16 10:37:11;;;;;;;12.10;10.20;;;18.30;99.90;;;;;;5021237;28;20456;-80
2021/09/16 10:39:42;;;;;;;10.17;8.40;;;18.50;99.90;;;;;;5020629;28;20439;-78
2021/09/16 10:42:10;;;;;;;10.93;9.10;;;18.60;99.90;;;;;;5022154;28;20440;-79
2021/09/16 10:44:37;;;;;;;12.43;9.93;;;18.60;99.90;;;;;;5022115;28;20452;-79
2021/09/16 10:47:16;;;;;;;15.00;10.27;;;18.80;99.90;;;;;;5033054;28;20463;-79
2021/09/16 10:49:44;;;;;;;15.07;10.63;;;18.90;99.90;;;;;;5049099;28;20540;-77
2021/09/16 10:52:23;;;;;;;13.00;10.47;;;18.90;99.90;;;;;;5054645;28;20418;-80
2021/09/16 10:54:54;;;;;;;15.97;11.30;;;18.80;99.90;;;;;;5038733;28;20570;-77
2021/09/16 10:57:35;;;;;;;13.50;10.80;;;18.70;99.90;;;;;;5037128;28;20476;-77
2021/09/16 11:00:17;;;;;;;13.13;10.60;;;18.60;99.90;;;;;;5033591;28;20563;-77
2021/09/16 11:03:12;;;;;;;14.30;10.63;;;18.50;99.90;;;;;;5018020;28;20492;-77
2021/09/16 11:05:51;;;;;;;13.60;11.53;;;18.50;99.90;;;;;;5051637;28;20471;-78
2021/09/16 11:08:21;;;;;;;13.53;11.30;;;18.70;99.90;;;;;;5042761;28;20448;-77
2021/09/16 11:10:59;;;;;;;13.77;11.13;;;18.80;99.90;;;;;;5036495;28;20582;-81
2021/09/16 11:13:50;;;;;;;15.00;12.33;;;18.70;99.90;;;;;;5038842;28;20529;-79
2021/09/16 11:16:22;;;;;;;14.20;11.70;;;18.80;99.90;;;;;;5041634;28;20441;-76
2021/09/16 11:18:49;;;;;;;15.50;12.30;;;18.80;99.90;;;;;;5045554;28;20450;-76
2021/09/16 11:21:20;;;;;;;19.90;12.77;;;18.90;99.90;;;;;;5058505;28;20975;-79
2021/09/16 11:23:49;;;;;;;16.10;13.47;;;18.80;99.90;;;;;;5051637;28;20448;-78
2021/09/16 11:26:20;;;;;;;15.77;12.87;;;18.90;99.90;;;;;;5042007;28;20524;-79
2021/09/16 11:29:02;;;;;;;16.07;11.90;;;19.00;99.90;;;;;;5048139;28;20934;-77
2021/09/16 11:31:29;;;;;;;23.37;12.03;;;19.00;99.90;;;;;;5018042;28;20472;-81
2021/09/16 11:34:11;;;;;;;19.10;12.73;;;19.00;99.90;;;;;;5036954;28;20555;-79
2021/09/16 11:36:38;;;;;;;19.70;13.50;;;19.20;99.90;;;;;;5044766;28;20532;-79
2021/09/16 11:39:15;;;;;;;19.60;13.47;;;19.10;99.90;;;;;;5046343;28;20461;-78
2021/09/16 11:41:43;;;;;;;18.97;12.90;;;18.90;99.90;;;;;;5046494;28;20500;-80
2021/09/16 11:44:11;;;;;;;17.17;12.83;;;18.90;99.90;;;;;;5046885;28;20967;-78
2021/09/16 11:46:37;;;;;;;17.40;13.43;;;19.00;99.90;;;;;;5036568;28;20455;-78
2021/09/16 11:49:04;;;;;;;15.70;11.80;;;18.90;99.90;;;;;;5034955;28;20548;-77
2021/09/16 11:51:31;;;;;;;17.63;12.30;;;19.00;99.90;;;;;;5040702;28;20483;-78
2021/09/16 11:54:10;;;;;;;17.40;11.60;;;19.10;99.90;;;;;;5046129;28;20536;-77
2021/09/16 11:56:37;;;;;;;14.93;12.50;;;19.40;99.90;;;;;;5042373;28;20508;-78
2021/09/16 11:59:09;;;;;;;14.83;12.07;;;19.50;99.90;;;;;;5036843;28;20543;-78
2021/09/16 12:01:36;;;;;;;18.63;11.80;;;19.40;99.90;;;;;;5036249;28;20488;-77
2021/09/16 12:04:03;;;;;;;16.67;12.70;;;19.40;99.90;;;;;;5048392;28;20958;-78
2021/09/16 12:06:34;;;;;;;18.47;14.47;;;19.30;99.90;;;;;;5059585;28;20481;-78
2021/09/16 12:09:04;;;;;;;18.57;14.33;;;19.30;99.90;;;;;;5057994;28;20451;-78
2021/09/16 12:11:32;;;;;;;17.33;15.00;;;19.40;99.90;;;;;;5043171;28;20477;-77
2021/09/16 12:14:01;;;;;;;18.37;15.33;;;19.30;99.90;;;;;;5053346;28;20818;-79
2021/09/16 12:16:31;;;;;;;21.53;14.43;;;19.10;99.90;;;;;;5063578;28;20431;-79
2021/09/16 12:19:00;;;;;;;19.87;14.83;;;19.00;99.90;;;;;;5057266;28;20552;-77
2021/09/16 12:21:30;;;;;;;18.50;15.80;;;19.00;99.90;;;;;;5042825;28;20471;-80
2021/09/16 12:23:59;;;;;;;21.63;15.90;;;19.10;99.90;;;;;;5039873;28;20461;-77
2021/09/16 12:26:28;;;;;;;23.00;16.23;;;19.10;99.90;;;;;;5044899;28;20453;-80
2021/09/16 12:28:59;;;;;;;18.77;15.60;;;19.20;99.90;;;;;;5056247;28;20450;-79
2021/09/16 12:31:30;;;;;;;19.13;16.70;;;19.20;99.90;;;;;;5070369;28;20532;-80
2021/09/16 12:33:59;;;;;;;23.60;16.50;;;19.30;99.90;;;;;;5069579;28;20443;-80
2021/09/16 12:36:26;;;;;;;21.43;17.80;;;19.20;99.90;;;;;;5065460;28;21023;-79
2021/09/16 12:38:56;;;;;;;19.63;17.43;;;19.40;99.90;;;;;;5053474;28;21031;-79
2021/09/16 12:41:25;;;;;;;25.90;18.47;;;19.20;99.90;;;;;;5050396;28;20547;-79
2021/09/16 12:44:01;;;;;;;21.93;18.13;;;19.10;99.90;;;;;;5052355;28;20524;-79
2021/09/16 12:46:38;;;;;;;24.93;18.80;;;19.10;99.90;;;;;;5061872;28;20477;-80
2021/09/16 12:49:05;;;;;;;27.93;20.20;;;19.20;99.90;;;;;;5061010;28;20527;-80